Time;durP1;ratioP1;P1;durP2;ratioP2;P2;SDS_P1;SDS_P2;PMS_P1;PMS_P2;Temp;Humidity;BMP_temperature;BMP_pressure;BME280_temperature;BME280_humidity;BME280_pressure;Samples;Min_cycle;Max_cycle;Signal;HPM_P1;HPM_P2
2022/01/26 00:06:25;;;;;;;27.80;23.70;;;;;;;3.37;88.17;101275.17;88249;1274;98270;-74
2022/01/26 00:08:34;;;;;;;26.50;19.20;;;;;;;3.38;88.32;101276.41;88274;1274;87872;-74
2022/01/26 00:10:46;;;;;;;27.60;18.80;;;;;;;3.39;88.25;101273.98;88241;1274;94597;-63
2022/01/26 00:12:55;;;;;;;24.40;18.50;;;;;;;3.38;88.14;101276.69;88280;1274;82061;-66
2022/01/26 00:15:06;;;;;;;47.60;27.50;;;;;;;3.36;88.40;101275.48;88285;1272;82492;-74
2022/01/26 00:17:15;;;;;;;40.00;26.00;;;;;;;3.28;88.32;101272.23;88254;1274;100592;-74
2022/01/26 00:19:32;;;;;;;30.30;20.20;;;;;;;3.30;88.29;101271.02;88235;1273;89469;-66
2022/01/26 00:21:48;;;;;;;30.20;20.50;;;;;;;3.28;88.33;101268.50;88170;1274;94168;-65
2022/01/26 00:24:24;;;;;;;31.20;19.30;;;;;;;3.34;88.33;101267.59;88274;1274;79015;-66
2022/01/26 00:27:00;;;;;;;30.20;19.40;;;;;;;3.30;88.42;101269.36;88290;1274;81319;-65
2022/01/26 00:29:11;;;;;;;45.20;24.80;;;;;;;3.25;88.33;101272.05;88272;1274;97536;-65
2022/01/26 00:38:48;;;;;;;26.20;17.10;;;;;;;3.32;88.28;101275.78;88279;1274;82649;-65
2022/01/26 00:41:03;;;;;;;25.90;18.00;;;;;;;3.31;88.35;101275.85;88252;1274;97787;-65
2022/01/26 00:43:19;;;;;;;24.80;17.00;;;;;;;3.31;88.42;101276.26;88261;1274;87911;-65
2022/01/26 00:45:34;;;;;;;21.50;17.00;;;;;;;3.31;88.25;101275.39;88294;1274;95647;-74
2022/01/26 00:47:44;;;;;;;24.80;16.40;;;;;;;3.32;88.44;101277.58;88257;1272;80589;-73
2022/01/26 00:49:58;;;;;;;23.90;17.30;;;;;;;3.33;88.23;101278.07;88279;1274;82092;-69
2022/01/26 00:52:12;;;;;;;25.60;18.10;;;;;;;3.38;88.14;101277.84;88240;1273;99886;-69
2022/01/26 00:54:22;;;;;;;29.60;22.00;;;;;;;3.31;88.14;101276.92;88312;1272;89399;-67
2022/01/26 00:56:31;;;;;;;27.20;18.80;;;;;;;3.27;88.17;101278.85;88259;1274;95202;-73
2022/01/26 00:58:41;;;;;;;23.50;16.60;;;;;;;3.20;88.07;101277.64;88288;1274;79100;-72
2022/01/26 01:00:53;;;;;;;25.90;17.60;;;;;;;3.17;88.18;101275.06;88282;1273;81642;-71
2022/01/26 01:03:06;;;;;;;28.60;18.70;;;;;;;3.13;88.24;101276.14;88252;1274;98335;-72
2022/01/26 01:05:18;;;;;;;22.00;15.90;;;;;;;3.15;88.21;101277.52;88268;1274;87992;-67
2022/01/26 01:07:32;;;;;;;22.80;15.30;;;;;;;3.18;88.35;101278.55;88287;1274;94408;-68
2022/01/26 01:09:40;;;;;;;;;;;;;;;3.23;88.30;101280.21;88318;1274;80484;-68
2022/01/26 01:11:55;;;;;;;24.80;14.50;;;;;;;3.22;88.31;101276.77;88294;1274;81577;-67
2022/01/26 01:14:04;;;;;;;22.70;15.50;;;;;;;3.25;88.23;101271.40;88290;1274;99602;-68
2022/01/26 01:16:18;;;;;;;25.40;17.50;;;;;;;3.25;88.23;101267.33;88297;1273;88795;-73
2022/01/26 01:18:34;;;;;;;23.50;15.90;;;;;;;3.27;88.36;101265.52;88251;1274;94252;-73
2022/01/26 01:23:59;;;;;;;46.90;27.20;;;;;;;3.27;88.39;101266.38;88013;1279;81534;-68
2022/01/26 01:26:39;;;;;;;42.30;23.60;;;;;;;3.22;88.14;101266.82;88025;1279;99421;-68
2022/01/26 01:29:08;;;;;;;28.50;19.00;;;;;;;3.20;88.26;101266.31;88011;1279;89372;-66
2022/01/26 01:31:28;;;;;;;33.60;19.60;;;;;;;3.16;88.21;101262.69;87995;1280;95988;-69
2022/01/26 01:33:44;;;;;;;35.30;19.80;;;;;;;3.18;88.16;101265.89;88033;1279;80271;-67
2022/01/26 01:35:54;;;;;;;35.30;20.30;;;;;;;3.15;88.14;101255.61;88048;1279;83248;-67
2022/01/26 01:38:13;;;;;;;35.30;19.60;;;;;;;3.19;88.26;101252.79;88014;1279;97415;-67
2022/01/26 01:40:23;;;;;;;37.10;19.60;;;;;;;3.25;88.18;101247.58;88030;1279;87400;-71
2022/01/26 01:42:35;;;;;;;35.50;21.00;;;;;;;3.23;88.34;101246.96;88025;1279;96121;-73
2022/01/26 01:44:43;;;;;;;35.20;19.50;;;;;;;3.20;88.40;101245.28;88032;1279;81440;-70
2022/01/26 01:46:55;;;;;;;29.40;16.20;;;;;;;3.24;88.23;101246.89;88018;1279;81592;-71
2022/01/26 01:49:05;;;;;;;27.50;16.60;;;;;;;3.29;88.31;101242.20;88014;1279;98576;-72
2022/01/26 01:51:16;;;;;;;27.20;17.10;;;;;;;3.29;88.11;101245.56;88044;1278;87841;-67
2022/01/26 01:53:34;;;;;;;29.20;17.00;;;;;;;3.31;87.95;101246.35;87994;1279;94872;-67
2022/01/26 01:55:48;;;;;;;27.60;17.80;;;;;;;3.31;88.04;101243.14;88038;1279;77758;-72
2022/01/26 01:57:58;;;;;;;27.10;17.40;;;;;;;3.27;88.00;101243.80;88059;1273;80920;-72
2022/01/26 02:00:10;;;;;;;25.80;17.50;;;;;;;3.23;88.16;101249.09;88254;1274;100214;-72
2022/01/26 02:02:19;;;;;;;23.60;16.60;;;;;;;3.18;87.93;101247.95;88272;1274;88778;-72
2022/01/26 02:04:28;;;;;;;27.60;16.40;;;;;;;3.15;87.91;101247.96;88260;1274;93820;-71
2022/01/26 02:06:43;;;;;;;27.20;16.40;;;;;;;3.17;87.95;101247.63;88235;1273;79926;-73
2022/01/26 02:08:55;;;;;;;26.00;16.10;;;;;;;3.14;87.94;101243.81;88280;1274;83596;-71
2022/01/26 02:11:06;;;;;;;26.80;16.80;;;;;;;3.13;88.16;101245.34;88273;1274;100957;-73
2022/01/26 02:13:22;;;;;;;27.40;19.00;;;;;;;3.13;88.20;101243.49;88262;1274;88315;-72
2022/01/26 02:15:39;;;;;;;34.20;20.70;;;;;;;3.15;88.31;101243.16;88249;1274;95601;-67
2022/01/26 02:20:39;;;;;;;30.20;18.80;;;;;;;3.19;88.07;101237.33;88218;1274;80973;-67
2022/01/26 02:50:26;;;;;;;25.50;16.80;;;;;;;3.09;87.98;101230.13;87713;1282;89002;-65
2022/01/26 02:52:54;;;;;;;24.60;16.20;;;;;;;3.11;87.98;101231.02;87752;1279;92578;-66
2022/01/26 02:57:43;;;;;;;22.70;14.50;;;;;;;3.04;88.00;101232.83;87811;1279;82712;-72
2022/01/26 03:02:44;;;;;;;19.70;13.80;;;;;;;3.10;88.11;101228.79;85291;1313;600576;-73
2022/01/26 03:04:56;;;;;;;23.40;13.70;;;;;;;3.11;88.08;101229.99;87849;1284;82210;-73
2022/01/26 03:07:15;;;;;;;20.60;13.80;;;;;;;3.16;88.02;101229.95;87843;1284;83536;-73
2022/01/26 03:09:28;;;;;;;23.50;14.30;;;;;;;3.17;88.04;101225.61;87867;1284;97315;-66
2022/01/26 03:11:44;;;;;;;21.90;15.40;;;;;;;3.17;88.08;101225.54;87811;1283;86852;-63
2022/01/26 03:14:05;;;;;;;23.30;15.30;;;;;;;3.19;87.91;101227.35;88158;1275;95690;-63
2022/01/26 03:16:20;;;;;;;20.60;15.20;;;;;;;3.21;87.85;101229.20;87888;1274;386131;-68
2022/01/26 03:18:49;;;;;;;22.70;15.40;;;;;;;3.16;87.93;101231.33;88281;1274;81316;-69
2022/01/26 03:21:01;;;;;;;24.00;14.90;;;;;;;3.13;87.80;101234.40;88275;1274;96923;-73
2022/01/26 03:28:16;;;;;;;18.60;13.20;;;;;;;3.01;87.90;101231.65;88243;1274;81435;-71
2022/01/26 03:30:45;;;;;;;18.90;13.40;;;;;;;3.03;87.99;101232.23;88265;1274;80623;-67
2022/01/26 03:33:13;;;;;;;22.90;13.90;;;;;;;3.02;88.18;101231.58;88274;1274;98072;-68
2022/01/26 03:35:39;;;;;;;22.30;15.20;;;;;;;2.98;88.06;101228.69;88276;1274;89023;-69
2022/01/26 03:37:53;;;;;;;23.10;13.90;;;;;;;3.00;88.15;101224.44;88262;1274;95812;-68
2022/01/26 03:40:14;;;;;;;24.60;15.50;;;;;;;3.05;88.21;101222.96;88254;1274;79004;-71
2022/01/26 03:42:26;;;;;;;21.60;14.30;;;;;;;3.12;87.98;101218.73;88248;1274;82708;-73
2022/01/26 03:44:36;;;;;;;24.20;15.90;;;;;;;3.13;88.08;101219.14;88273;1274;99147;-68
2022/01/26 03:46:50;;;;;;;25.60;15.90;;;;;;;3.13;87.80;101219.02;88174;1274;88944;-68
2022/01/26 03:48:59;;;;;;;24.70;15.40;;;;;;;3.07;88.01;101221.77;88250;1274;95141;-69
2022/01/26 03:51:08;;;;;;;25.20;16.10;;;;;;;3.07;88.02;101218.92;88288;1274;81244;-68
2022/01/26 03:53:21;;;;;;;24.00;15.30;;;;;;;3.08;87.93;101219.94;88267;1274;83437;-72
2022/01/26 03:55:30;;;;;;;22.70;14.00;;;;;;;3.08;87.82;101219.52;88296;1274;97544;-72
2022/01/26 03:57:39;;;;;;;18.50;12.80;;;;;;;3.07;87.84;101220.16;88291;1274;89827;-73
2022/01/26 03:59:48;;;;;;;21.20;13.50;;;;;;;3.04;87.76;101226.48;88248;1274;93899;-69
2022/01/26 04:01:56;;;;;;;24.00;13.90;;;;;;;3.06;87.93;101227.69;88293;1274;81668;-69
2022/01/26 04:04:06;;;;;;;20.20;12.20;;;;;;;3.10;87.98;101228.23;88273;1274;82230;-67
2022/01/26 04:06:15;;;;;;;19.90;13.30;;;;;;;3.08;87.80;101228.62;88275;1274;97933;-73
2022/01/26 04:08:28;;;;;;;20.50;13.90;;;;;;;3.06;87.90;101232.86;88278;1274;88210;-72
2022/01/26 04:10:51;;;;;;;20.90;14.60;;;;;;;3.03;87.88;101231.11;88269;1274;95427;-74
2022/01/26 04:13:00;;;;;;;20.80;14.40;;;;;;;2.93;88.00;101229.92;88252;1273;77541;-72
2022/01/26 04:15:20;;;;;;;22.30;14.60;;;;;;;2.92;87.98;101227.71;88294;1274;83451;-72
2022/01/26 04:17:33;;;;;;;23.10;15.00;;;;;;;2.90;87.89;101224.48;88264;1274;96571;-73
2022/01/26 04:19:44;;;;;;;21.70;15.00;;;;;;;2.91;88.03;101225.33;88242;1274;88852;-74
2022/01/26 04:22:07;;;;;;;21.70;13.20;;;;;;;2.89;87.81;101225.80;88221;1274;93099;-71
2022/01/26 04:24:21;;;;;;;21.40;12.40;;;;;;;2.86;87.94;101226.20;88255;1274;80888;-67
2022/01/26 04:26:33;;;;;;;;;;;;;;;2.87;87.91;101227.39;88246;1274;82316;-67
2022/01/26 04:28:48;;;;;;;19.30;11.40;;;;;;;2.87;88.02;101226.91;88246;1274;98110;-68
2022/01/26 04:30:58;;;;;;;18.70;11.80;;;;;;;2.89;88.02;101224.58;88261;1274;87709;-67
2022/01/26 04:33:07;;;;;;;18.30;11.70;;;;;;;2.93;88.09;101223.00;88170;1277;95876;-67
2022/01/26 04:35:16;;;;;;;19.70;11.80;;;;;;;2.96;88.00;101222.74;88281;1274;79640;-68
2022/01/26 04:37:35;;;;;;;19.40;12.00;;;;;;;2.99;88.09;101221.81;88238;1274;83455;-67
2022/01/26 04:39:50;;;;;;;21.90;12.80;;;;;;;2.97;88.01;101221.98;88246;1274;96727;-72
2022/01/26 04:42:05;;;;;;;19.30;12.10;;;;;;;2.94;88.04;101222.03;88267;1274;89699;-73
2022/01/26 04:44:21;;;;;;;17.50;12.50;;;;;;;2.88;87.95;101222.73;88251;1274;97422;-72
2022/01/26 04:46:32;;;;;;;18.70;11.40;;;;;;;2.80;87.99;101217.30;88219;1274;78677;-67
2022/01/26 04:48:43;;;;;;;16.50;10.50;;;;;;;2.75;87.89;101217.52;88284;1274;83451;-67
2022/01/26 04:50:52;;;;;;;14.10;9.40;;;;;;;2.72;88.08;101215.41;88159;1277;97617;-69
2022/01/26 04:53:02;;;;;;;14.70;10.20;;;;;;;2.72;88.07;101215.42;88248;1274;87093;-67
2022/01/26 04:55:12;;;;;;;15.90;9.20;;;;;;;2.72;88.12;101213.48;88264;1274;95734;-66
2022/01/26 04:57:21;;;;;;;17.20;9.40;;;;;;;2.71;88.02;101208.23;88251;1274;78853;-67
2022/01/26 04:59:30;;;;;;;15.00;8.60;;;;;;;2.77;88.07;101210.09;88239;1274;80937;-67
2022/01/26 05:01:39;;;;;;;14.50;8.50;;;;;;;2.77;88.21;101208.48;88233;1274;98200;-67
2022/01/26 05:03:48;;;;;;;14.10;8.30;;;;;;;2.79;88.12;101207.45;88234;1274;89113;-71
2022/01/26 05:05:57;;;;;;;15.10;8.80;;;;;;;2.83;87.99;101203.18;88233;1274;95646;-72
2022/01/26 05:08:08;;;;;;;16.50;9.20;;;;;;;2.83;87.98;101198.73;88263;1274;78020;-71
2022/01/26 05:10:19;;;;;;;13.80;8.30;;;;;;;2.82;88.00;101198.44;88269;1273;81893;-72
2022/01/26 05:12:33;;;;;;;13.60;8.00;;;;;;;2.81;87.94;101193.41;88252;1274;97858;-73
2022/01/26 05:14:45;;;;;;;16.80;9.00;;;;;;;2.71;87.94;101195.38;88286;1274;87733;-64
2022/01/26 05:16:54;;;;;;;15.10;8.00;;;;;;;2.63;88.03;101189.45;88255;1272;94704;-64
2022/01/26 05:19:07;;;;;;;14.90;8.00;;;;;;;2.57;87.86;101186.91;88250;1274;79062;-64
2022/01/26 05:21:16;;;;;;;13.30;8.20;;;;;;;2.59;87.82;101187.85;88205;1277;82387;-65
2022/01/26 05:23:25;;;;;;;13.20;7.40;;;;;;;2.57;87.86;101191.56;88245;1274;96518;-65
2022/01/26 05:25:33;;;;;;;13.50;7.70;;;;;;;2.50;88.06;101186.95;88288;1274;89092;-70
2022/01/26 05:27:43;;;;;;;11.60;7.80;;;;;;;2.49;88.06;101185.45;88243;1274;94054;-72
2022/01/26 05:29:54;;;;;;;12.30;7.30;;;;;;;2.49;88.14;101185.45;88189;1277;82559;-71
2022/01/26 05:32:07;;;;;;;12.50;7.70;;;;;;;2.53;87.97;101189.00;88255;1274;82256;-73
2022/01/26 05:34:16;;;;;;;14.90;8.40;;;;;;;2.56;88.10;101187.02;88279;1274;97579;-65
2022/01/26 05:36:25;;;;;;;14.30;8.90;;;;;;;2.56;88.16;101184.36;88278;1274;89163;-65
2022/01/26 05:38:39;;;;;;;13.00;8.60;;;;;;;2.60;88.12;101187.03;88248;1274;95421;-65
2022/01/26 05:40:49;;;;;;;17.60;10.10;;;;;;;2.58;88.03;101182.90;88246;1274;80621;-65
2022/01/26 05:43:01;;;;;;;17.10;10.60;;;;;;;2.57;88.16;101190.48;88264;1274;82710;-64
2022/01/26 05:45:22;;;;;;;19.70;11.10;;;;;;;2.55;88.04;101186.92;88238;1274;98046;-72
2022/01/26 05:47:33;;;;;;;20.10;11.20;;;;;;;2.50;87.92;101190.52;88262;1274;86749;-73
2022/01/26 05:49:41;;;;;;;20.20;10.90;;;;;;;2.43;88.02;101189.98;88270;1274;95125;-66
2022/01/26 05:51:51;;;;;;;24.00;12.30;;;;;;;2.40;88.09;101192.69;88245;1274;79510;-66
2022/01/26 05:54:01;;;;;;;20.20;11.30;;;;;;;2.42;88.07;101190.95;88261;1274;81693;-65
2022/01/26 05:56:11;;;;;;;23.70;11.80;;;;;;;2.45;88.17;101190.77;88252;1274;98139;-65
2022/01/26 05:58:24;;;;;;;19.60;12.10;;;;;;;2.51;88.15;101193.42;88248;1274;88354;-65
2022/01/26 06:00:36;;;;;;;23.80;12.70;;;;;;;2.58;88.06;101193.28;88267;1273;96441;-64
2022/01/26 06:02:45;;;;;;;26.80;12.50;;;;;;;2.60;88.08;101188.96;88230;1274;76336;-64
2022/01/26 06:04:55;;;;;;;25.40;12.90;;;;;;;2.62;87.93;101187.25;88261;1274;81687;-65
2022/01/26 06:07:04;;;;;;;25.70;13.50;;;;;;;2.61;88.03;101183.73;88267;1274;97552;-64
2022/01/26 06:09:13;;;;;;;26.30;14.10;;;;;;;2.61;87.95;101181.44;88208;1274;90386;-65
2022/01/26 06:11:22;;;;;;;23.10;13.70;;;;;;;2.57;87.90;101184.10;88230;1274;95630;-65
2022/01/26 06:13:32;;;;;;;21.50;12.50;;;;;;;2.53;87.94;101178.90;88255;1274;80620;-65
2022/01/26 06:15:41;;;;;;;20.50;12.40;;;;;;;2.44;87.95;101176.56;88259;1274;82138;-65
2022/01/26 06:17:51;;;;;;;19.70;11.90;;;;;;;2.40;87.98;101170.80;88243;1274;96525;-65
2022/01/26 06:20:02;;;;;;;24.70;12.60;;;;;;;2.39;88.00;101174.84;88261;1274;88873;-73
2022/01/26 06:22:11;;;;;;;21.50;12.70;;;;;;;2.38;88.14;101174.38;88233;1274;93311;-73
2022/01/26 06:24:21;;;;;;;19.20;12.20;;;;;;;2.43;88.01;101177.23;88237;1274;79561;-67
2022/01/26 06:26:30;;;;;;;21.70;11.60;;;;;;;2.43;88.03;101171.55;88258;1274;83483;-73
2022/01/26 06:28:43;;;;;;;18.30;12.00;;;;;;;2.45;88.02;101172.41;88223;1274;97632;-64
2022/01/26 06:30:55;;;;;;;22.80;13.40;;;;;;;2.48;87.98;101172.90;88290;1274;89144;-70
2022/01/26 06:33:08;;;;;;;19.80;12.80;;;;;;;2.54;88.04;101173.86;88219;1274;93593;-66
2022/01/26 06:35:21;;;;;;;21.50;14.30;;;;;;;2.54;88.12;101170.80;88280;1273;80195;-66
2022/01/26 06:37:30;;;;;;;18.50;12.20;;;;;;;2.54;87.96;101173.49;88266;1274;81253;-64
2022/01/26 06:39:39;;;;;;;21.30;12.90;;;;;;;2.56;88.01;101171.04;88263;1274;98272;-66
2022/01/26 06:41:52;;;;;;;21.20;12.20;;;;;;;2.54;87.95;101172.75;88247;1274;86846;-64
2022/01/26 06:44:15;;;;;;;24.10;14.70;;;;;;;2.55;87.95;101171.11;88233;1274;95736;-65
2022/01/26 06:46:38;;;;;;;42.60;20.90;;;;;;;2.58;87.79;101173.86;88247;1274;80649;-80
2022/01/26 06:49:03;;;;;;;41.10;20.60;;;;;;;2.58;87.87;101173.86;88309;1274;83629;-79
2022/01/26 06:51:13;;;;;;;27.60;16.50;;;;;;;2.57;87.95;101175.41;88258;1274;96490;-75
2022/01/26 06:53:25;;;;;;;40.80;20.30;;;;;;;2.57;88.18;101175.90;88248;1274;88249;-76
2022/01/26 06:55:38;;;;;;;30.10;17.10;;;;;;;2.66;88.06;101177.00;88219;1274;95193;-76
2022/01/26 06:57:55;;;;;;;31.70;19.00;;;;;;;2.68;87.95;101179.15;88261;1274;76635;-77
2022/01/26 07:00:10;;;;;;;26.90;14.90;;;;;;;2.70;88.05;101175.91;88311;1274;81025;-80
2022/01/26 07:02:19;;;;;;;28.90;15.60;;;;;;;2.68;87.95;101172.17;88236;1274;99506;-81
2022/01/26 07:04:31;;;;;;;35.90;19.30;;;;;;;2.68;88.15;101172.52;88271;1274;86777;-68
2022/01/26 07:06:41;;;;;;;55.70;27.80;;;;;;;2.71;87.95;101173.20;88242;1274;94646;-66
2022/01/26 07:08:54;;;;;;;53.80;28.30;;;;;;;2.73;87.95;101170.89;88303;1274;81571;-64
2022/01/26 07:11:04;;;;;;;34.20;19.80;;;;;;;2.75;87.79;101172.32;88247;1273;80448;-64
2022/01/26 07:13:14;;;;;;;27.40;18.10;;;;;;;2.77;87.75;101172.87;88253;1274;96110;-66
2022/01/26 07:21:08;;;;;;;20.60;13.70;;;;;;;2.89;88.01;101169.64;88213;1274;79429;-67
2022/01/26 07:23:06;;;;;;;20.90;12.70;;;;;;;2.90;87.83;101160.25;88241;1274;80419;-64
2022/01/26 07:25:15;;;;;;;20.10;13.50;;;;;;;2.92;87.74;101161.88;88245;1274;97990;-75
2022/01/26 07:27:24;;;;;;;17.90;12.40;;;;;;;2.96;87.75;101160.71;88267;1274;87974;-76
2022/01/26 07:29:34;;;;;;;23.90;14.00;;;;;;;2.98;87.82;101160.02;88216;1274;95596;-77
2022/01/26 07:31:47;;;;;;;23.50;14.70;;;;;;;2.98;87.82;101164.27;88191;1274;78204;-75
2022/01/26 07:33:57;;;;;;;20.60;13.50;;;;;;;2.97;87.60;101164.54;88250;1274;82494;-72
2022/01/26 07:36:07;;;;;;;19.00;14.10;;;;;;;2.93;87.73;101160.20;88247;1274;97020;-75
2022/01/26 07:38:16;;;;;;;19.80;13.40;;;;;;;2.86;87.76;101162.77;88260;1274;88888;-75
2022/01/26 07:40:25;;;;;;;23.00;12.30;;;;;;;2.86;87.79;101168.22;88249;1274;94648;-69
2022/01/26 07:42:35;;;;;;;24.70;14.10;;;;;;;2.83;87.77;101169.41;88238;1274;80104;-70
2022/01/26 07:44:45;;;;;;;37.20;21.20;;;;;;;2.87;87.82;101173.53;88282;1274;80717;-65
2022/01/26 07:46:58;;;;;;;25.80;16.20;;;;;;;2.87;87.88;101172.11;88190;1275;98638;-62
2022/01/26 07:49:12;;;;;;;21.80;13.30;;;;;;;2.92;88.00;101175.55;88245;1274;88332;-63
2022/01/26 07:51:22;;;;;;;26.50;16.40;;;;;;;2.99;87.92;101175.20;88241;1274;93951;-69
2022/01/26 07:53:32;;;;;;;24.20;14.50;;;;;;;3.04;87.77;101164.90;88242;1274;77446;-71
2022/01/26 07:55:42;;;;;;;22.00;12.80;;;;;;;3.06;87.98;101165.98;88259;1274;82233;-69
2022/01/26 07:57:57;;;;;;;18.90;12.30;;;;;;;3.09;87.83;101166.42;88197;1275;98079;-74
2022/01/26 08:00:29;;;;;;;19.60;11.20;;;;;;;3.15;87.78;101162.41;88283;1274;87859;-62
2022/01/26 08:02:48;;;;;;;21.10;13.00;;;;;;;3.18;87.67;101160.13;88181;1274;94479;-70
2022/01/26 08:05:05;;;;;;;19.40;12.10;;;;;;;3.21;87.65;101160.30;88162;1277;79028;-72
2022/01/26 08:07:24;;;;;;;16.10;9.10;;;;;;;3.29;87.73;101159.48;88182;1277;80703;-73
2022/01/26 08:09:52;;;;;;;16.40;10.20;;;;;;;3.40;87.59;101160.51;88291;1274;97024;-62
2022/01/26 08:12:09;;;;;;;15.10;9.10;;;;;;;3.53;87.72;101160.13;88422;1271;87384;-72
2022/01/26 08:14:24;;;;;;;16.10;9.40;;;;;;;3.57;87.59;101159.08;88435;1271;95626;-72
2022/01/26 08:16:36;;;;;;;15.50;8.80;;;;;;;3.60;87.72;101160.83;88472;1271;80784;-64
2022/01/26 08:18:53;;;;;;;15.50;9.30;;;;;;;3.67;87.57;101157.75;88471;1269;81699;-63
2022/01/26 08:21:10;;;;;;;15.10;9.50;;;;;;;3.81;87.60;101157.76;88508;1271;97673;-64
2022/01/26 08:23:28;;;;;;;13.50;8.90;;;;;;;3.90;87.34;101161.30;88476;1271;87766;-64
2022/01/26 08:25:38;;;;;;;13.50;9.50;;;;;;;3.87;87.47;101158.86;88439;1270;95712;-64
2022/01/26 08:27:55;;;;;;;17.50;9.70;;;;;;;3.95;87.32;101160.94;88454;1271;78327;-72
2022/01/26 08:30:16;;;;;;;15.50;10.00;;;;;;;4.03;87.04;101167.00;88436;1271;81622;-65
2022/01/26 08:32:27;;;;;;;14.30;9.60;;;;;;;4.05;87.10;101166.92;88516;1262;98200;-71
2022/01/26 08:34:40;;;;;;;16.50;10.00;;;;;;;4.10;87.12;101168.48;88425;1271;87766;-65
2022/01/26 08:37:00;;;;;;;15.70;8.90;;;;;;;4.17;87.06;101168.59;88469;1271;92125;-72
2022/01/26 08:39:11;;;;;;;14.90;9.10;;;;;;;4.27;87.10;101170.99;88325;1271;80810;-67
2022/01/26 08:41:20;;;;;;;15.10;9.30;;;;;;;4.33;86.73;101169.08;88415;1271;80957;-64
2022/01/26 08:43:30;;;;;;;15.30;9.80;;;;;;;4.29;86.68;101171.59;88383;1271;98639;-66
2022/01/26 08:45:43;;;;;;;17.00;10.80;;;;;;;4.32;86.79;101164.64;88399;1271;85225;-65
2022/01/26 08:47:52;;;;;;;16.80;10.60;;;;;;;4.36;86.60;101161.86;88404;1271;94937;-74
2022/01/26 08:50:01;;;;;;;20.00;10.90;;;;;;;4.43;86.52;101160.20;88452;1271;77380;-75
2022/01/26 08:52:13;;;;;;;15.80;10.10;;;;;;;4.47;86.53;101160.54;88408;1271;80042;-74
2022/01/26 08:54:23;;;;;;;15.50;10.30;;;;;;;4.53;86.28;101157.68;88274;1271;99927;-74
2022/01/26 08:56:36;;;;;;;16.70;9.70;;;;;;;4.54;86.11;101156.90;88431;1271;88339;-74
2022/01/26 08:58:46;;;;;;;16.60;10.60;;;;;;;4.61;86.17;101153.23;88421;1271;96113;-66
2022/01/26 09:00:55;;;;;;;15.80;10.20;;;;;;;4.71;86.06;101157.15;88391;1271;79457;-66
2022/01/26 09:03:07;;;;;;;18.40;10.70;;;;;;;4.75;85.90;101157.28;88432;1271;81341;-64
2022/01/26 09:05:17;;;;;;;18.70;9.40;;;;;;;4.72;86.03;101156.34;88423;1271;96452;-67
2022/01/26 09:07:26;;;;;;;12.80;9.00;;;;;;;4.81;85.83;101158.27;88421;1271;88704;-64
2022/01/26 09:09:43;;;;;;;16.90;10.30;;;;;;;4.79;85.85;101157.55;88406;1271;95736;-65
2022/01/26 09:11:55;;;;;;;17.40;10.10;;;;;;;4.84;85.63;101157.49;88417;1271;78821;-67
2022/01/26 09:14:08;;;;;;;16.20;10.50;;;;;;;4.79;85.48;101152.17;88402;1271;82894;-65
2022/01/26 09:16:19;;;;;;;20.90;11.50;;;;;;;4.78;85.57;101153.75;88387;1271;98646;-66
2022/01/26 09:18:44;;;;;;;18.10;11.10;;;;;;;4.84;85.49;101152.64;88453;1271;89222;-66
2022/01/26 09:20:54;;;;;;;14.90;9.90;;;;;;;4.79;85.23;101150.42;88395;1270;95521;-65
2022/01/26 09:23:06;;;;;;;17.90;10.50;;;;;;;4.72;85.17;101150.29;88400;1271;78859;-73
2022/01/26 09:25:15;;;;;;;15.00;9.30;;;;;;;4.65;84.99;101148.59;88397;1270;83299;-74
2022/01/26 09:27:28;;;;;;;18.70;10.90;;;;;;;4.58;84.89;101150.13;88387;1271;95923;-66
2022/01/26 09:29:37;;;;;;;18.30;10.60;;;;;;;4.57;84.76;101150.91;88402;1270;89065;-65
2022/01/26 09:31:48;;;;;;;15.70;9.40;;;;;;;4.58;84.80;101151.50;88388;1271;94800;-65
2022/01/26 09:33:57;;;;;;;16.10;9.60;;;;;;;4.57;84.85;101153.58;88392;1271;77755;-65
2022/01/26 09:36:08;;;;;;;15.30;10.00;;;;;;;4.58;84.74;101153.71;88398;1271;82418;-75
2022/01/26 09:38:18;;;;;;;16.60;10.70;;;;;;;4.61;84.73;101151.13;88421;1271;99207;-76
2022/01/26 09:40:28;;;;;;;16.20;10.30;;;;;;;4.57;84.63;101150.33;88428;1271;87387;-78
2022/01/26 09:42:41;;;;;;;26.90;13.80;;;;;;;4.52;84.75;101145.96;88300;1271;95049;-75
2022/01/26 09:44:54;;;;;;;32.90;18.90;;;;;;;4.54;84.79;101148.11;88389;1271;78852;-76
2022/01/26 09:47:04;;;;;;;20.30;13.10;;;;;;;4.59;84.70;101151.27;88408;1271;80383;-74
2022/01/26 09:49:18;;;;;;;17.80;10.70;;;;;;;4.65;84.73;101151.46;88382;1271;96106;-75
2022/01/26 09:51:38;;;;;;;16.90;10.70;;;;;;;4.71;84.65;101146.05;88401;1271;88878;-72
2022/01/26 09:53:58;;;;;;;15.30;10.70;;;;;;;4.76;84.56;101149.80;88393;1271;95788;-73
2022/01/26 09:56:08;;;;;;;16.40;10.00;;;;;;;4.80;84.47;101147.98;88401;1271;80391;-73
2022/01/26 09:58:20;;;;;;;15.90;10.60;;;;;;;4.92;84.28;101150.48;88429;1271;82030;-62
2022/01/26 10:00:32;;;;;;;13.40;9.60;;;;;;;4.97;84.28;101144.20;88396;1271;98972;-64
2022/01/26 10:02:43;;;;;;;16.10;9.30;;;;;;;4.97;84.22;101142.21;88277;1271;87893;-63
2022/01/26 10:05:03;;;;;;;14.70;10.10;;;;;;;5.02;84.00;101136.91;88391;1271;94800;-63
2022/01/26 10:07:24;;;;;;;16.50;10.00;;;;;;;4.99;84.06;101129.66;88437;1271;79122;-64
2022/01/26 10:09:52;;;;;;;15.70;10.30;;;;;;;5.05;83.85;101132.16;88396;1271;80825;-64
2022/01/26 10:17:34;;;;;;;14.30;9.40;;;;;;;5.06;83.80;101119.83;88215;1271;95140;-63
2022/01/26 10:19:57;;;;;;;18.60;9.70;;;;;;;5.08;83.88;101115.14;88385;1270;78871;-63
2022/01/26 10:22:09;;;;;;;14.90;8.40;;;;;;;5.25;83.86;101111.75;88324;1271;81908;-64
2022/01/26 10:24:27;;;;;;;14.30;7.90;;;;;;;5.44;83.81;101106.76;88422;1271;96349;-65
2022/01/26 10:26:47;;;;;;;14.20;8.40;;;;;;;5.52;83.79;101102.71;88332;1271;87080;-70
2022/01/26 10:29:03;;;;;;;12.70;7.60;;;;;;;5.53;83.55;101101.05;88415;1271;95045;-64
2022/01/26 10:31:26;;;;;;;11.70;7.70;;;;;;;5.50;83.44;101107.25;88419;1271;79828;-72
2022/01/26 10:33:38;;;;;;;12.30;7.30;;;;;;;5.53;83.03;101104.05;88409;1271;80996;-71
2022/01/26 10:36:02;;;;;;;11.30;6.20;;;;;;;5.47;82.84;101106.28;88360;1271;99415;-62
2022/01/26 10:38:21;;;;;;;11.50;7.10;;;;;;;5.38;82.59;101102.79;88372;1271;89325;-70
2022/01/26 10:40:39;;;;;;;9.20;6.00;;;;;;;5.35;82.18;101098.04;88377;1271;94045;-72
2022/01/26 10:43:04;;;;;;;11.30;7.30;;;;;;;5.24;82.44;101095.28;88389;1271;77313;-72
2022/01/26 10:45:19;;;;;;;11.40;6.90;;;;;;;5.19;82.49;101092.55;88371;1271;82884;-74
2022/01/26 10:47:36;;;;;;;9.70;6.00;;;;;;;5.15;81.90;101094.85;88386;1271;97375;-62
2022/01/26 10:50:08;;;;;;;10.20;6.30;;;;;;;5.08;81.62;101088.55;88382;1270;89119;-62
2022/01/26 10:52:31;;;;;;;11.10;5.90;;;;;;;5.03;81.36;101085.64;88359;1271;95586;-63
2022/01/26 10:54:45;;;;;;;9.70;5.50;;;;;;;4.97;81.57;101082.38;88401;1271;78771;-70
2022/01/26 10:57:00;;;;;;;8.10;4.80;;;;;;;4.94;81.60;101081.20;88377;1271;82287;-63
2022/01/26 10:59:12;;;;;;;10.30;4.80;;;;;;;4.97;81.68;101081.69;88366;1271;97421;-61
2022/01/26 11:01:24;;;;;;;10.30;4.60;;;;;;;4.98;81.44;101077.88;88395;1271;88892;-72
2022/01/26 11:03:34;;;;;;;9.20;5.50;;;;;;;4.96;81.64;101069.65;88374;1271;93380;-62
2022/01/26 11:05:45;;;;;;;7.80;4.70;;;;;;;4.97;81.74;101069.34;88382;1271;77724;-72
2022/01/26 11:08:04;;;;;;;8.20;5.80;;;;;;;5.00;81.81;101068.73;88392;1271;81798;-62
2022/01/26 11:10:16;;;;;;;16.20;9.70;;;;;;;4.99;81.56;101067.60;88441;1271;98547;-74
2022/01/26 11:12:36;;;;;;;16.90;10.40;;;;;;;4.91;81.40;101064.91;88395;1271;87384;-72
2022/01/26 11:14:50;;;;;;;18.20;9.90;;;;;;;4.89;81.48;101061.77;88374;1271;95186;-62
2022/01/26 11:17:06;;;;;;;17.20;10.10;;;;;;;4.86;81.39;101056.05;88138;1271;340030;-73
2022/01/26 11:19:19;;;;;;;17.30;11.10;;;;;;;4.78;81.34;101054.83;88390;1271;83082;-72
2022/01/26 11:21:39;;;;;;;18.00;10.70;;;;;;;4.68;81.27;101055.77;88386;1271;98337;-62
2022/01/26 11:23:50;;;;;;;17.40;10.40;;;;;;;4.60;81.47;101055.95;88413;1271;86655;-74